Time;durP1;ratioP1;P1;durP2;ratioP2;P2;SDS_P1;SDS_P2;PMS_P1;PMS_P2;Temp;Humidity;BMP_temperature;BMP_pressure;BME280_temperature;BME280_humidity;BME280_pressure;Samples;Min_cycle;Max_cycle;Signal;HPM_P1;HPM_P2
2023/08/03 00:01:47;;;;;;;5.07;2.85;;;;;;;;;;9971478;29;20086;-86
2023/08/03 00:06:48;;;;;;;5.15;2.83;;;;;;;;;;9973693;29;20082;-86
2023/08/03 00:11:49;;;;;;;3.88;2.53;;;;;;;;;;9970047;29;20475;-85
2023/08/03 00:16:50;;;;;;;6.93;2.60;;;;;;;;;;9968001;29;20046;-85
2023/08/03 00:21:51;;;;;;;12.07;3.53;;;;;;;;;;9973144;29;20039;-84
2023/08/03 00:26:52;;;;;;;4.90;2.88;;;;;;;;;;9973043;29;20050;-85
2023/08/03 00:31:53;;;;;;;4.78;2.83;;;;;;;;;;9973230;29;20058;-84
2023/08/03 00:36:54;;;;;;;8.57;3.35;;;;;;;;;;9972946;29;20488;-84
2023/08/03 00:41:55;;;;;;;6.53;3.10;;;;;;;;;;9973580;29;20495;-84
2023/08/03 00:46:57;;;;;;;3.75;2.85;;;;;;;;;;9971547;29;20061;-85
2023/08/03 00:51:58;;;;;;;5.35;3.33;;;;;;;;;;9973390;29;20045;-84
2023/08/03 00:56:59;;;;;;;5.25;3.60;;;;;;;;;;9972551;29;20039;-85
2023/08/03 01:02:00;;;;;;;4.47;3.10;;;;;;;;;;9972788;29;20026;-85
2023/08/03 01:07:11;;;;;;;5.40;3.30;;;;;;;;;;9972203;29;20075;-85
2023/08/03 01:12:12;;;;;;;4.97;3.38;;;;;;;;;;9972097;29;20110;-84
2023/08/03 01:17:13;;;;;;;5.25;3.33;;;;;;;;;;9970644;29;20077;-84
2023/08/03 01:22:14;;;;;;;6.47;3.45;;;;;;;;;;9971821;29;20042;-85
2023/08/03 01:27:15;;;;;;;4.43;2.63;;;;;;;;;;9971572;29;20106;-84
2023/08/03 01:32:16;;;;;;;3.70;2.65;;;;;;;;;;9955041;29;20058;-84
2023/08/03 01:37:18;;;;;;;5.85;3.13;;;;;;;;;;9969827;29;20574;-84
2023/08/03 01:42:19;;;;;;;4.72;2.97;;;;;;;;;;9971802;29;20031;-85
2023/08/03 01:47:20;;;;;;;3.72;3.15;;;;;;;;;;9971082;29;20128;-85
2023/08/03 01:52:21;;;;;;;5.05;3.10;;;;;;;;;;9970607;29;20035;-85
2023/08/03 01:57:22;;;;;;;4.90;3.08;;;;;;;;;;9969192;29;20084;-84
2023/08/03 02:02:23;;;;;;;4.07;3.22;;;;;;;;;;9972336;29;20030;-84
2023/08/03 02:07:42;;;;;;;8.90;3.13;;;;;;;;;;9970891;29;20038;-84
2023/08/03 02:12:43;;;;;;;4.53;3.25;;;;;;;;;;9950540;24;20069;-81
2023/08/03 02:17:45;;;;;;;3.13;2.65;;;;;;;;;;9933218;29;20400;-83
2023/08/03 02:22:47;;;;;;;3.92;2.10;;;;;;;;;;9933021;29;20038;-82
2023/08/03 02:27:48;;;;;;;2.65;1.90;;;;;;;;;;9939347;29;20691;-85
2023/08/03 02:32:49;;;;;;;7.65;3.10;;;;;;;;;;9941193;29;20034;-87
2023/08/03 02:37:50;;;;;;;4.50;2.70;;;;;;;;;;9939430;29;20047;-84
2023/08/03 02:42:51;;;;;;;4.53;2.20;;;;;;;;;;9938507;29;20830;-85
2023/08/03 02:47:52;;;;;;;5.70;2.38;;;;;;;;;;9938822;29;20623;-85
2023/08/03 02:52:53;;;;;;;3.53;2.40;;;;;;;;;;9939299;29;20604;-85
2023/08/03 02:57:54;;;;;;;6.00;2.92;;;;;;;;;;9935482;29;20039;-84
2023/08/03 03:02:55;;;;;;;5.47;3.20;;;;;;;;;;9921664;29;20046;-85
2023/08/03 03:07:57;;;;;;;6.25;2.58;;;;;;;;;;9949883;24;20873;-84
2023/08/03 03:12:58;;;;;;;5.00;2.85;;;;;;;;;;9938720;29;20829;-85
2023/08/03 03:17:59;;;;;;;7.57;3.72;;;;;;;;;;9938141;29;20038;-85
2023/08/03 03:23:00;;;;;;;4.05;2.97;;;;;;;;;;9943046;29;20034;-86
2023/08/03 03:28:04;;;;;;;4.63;2.78;;;;;;;;;;9944700;29;20035;-86
2023/08/03 03:33:05;;;;;;;4.75;2.88;;;;;;;;;;9937004;29;20031;-87
2023/08/03 03:38:06;;;;;;;3.95;2.92;;;;;;;;;;9919140;29;20050;-88
2023/08/03 03:43:07;;;;;;;6.95;3.85;;;;;;;;;;9937741;29;20517;-88
2023/08/03 03:48:08;;;;;;;5.30;3.90;;;;;;;;;;9920756;29;20111;-87
2023/08/03 03:53:09;;;;;;;5.30;4.00;;;;;;;;;;9950601;29;20046;-91
2023/08/03 03:58:10;;;;;;;6.03;4.47;;;;;;;;;;9937489;29;20043;-88
2023/08/03 04:03:11;;;;;;;6.38;4.00;;;;;;;;;;9934596;29;20471;-86
2023/08/03 04:08:12;;;;;;;5.15;4.15;;;;;;;;;;9925731;29;20059;-88
2023/08/03 04:13:13;;;;;;;7.05;4.13;;;;;;;;;;9900055;29;20473;-88
2023/08/03 04:18:14;;;;;;;6.35;4.30;;;;;;;;;;9881114;29;20070;-88
2023/08/03 04:23:15;;;;;;;6.45;4.45;;;;;;;;;;9881151;29;20035;-87
2023/08/03 04:28:16;;;;;;;7.43;4.05;;;;;;;;;;9897778;30;20027;-86
2023/08/03 04:33:17;;;;;;;4.80;3.72;;;;;;;;;;9897703;29;20467;-84
2023/08/03 04:38:18;;;;;;;6.85;4.70;;;;;;;;;;9898148;29;20062;-85
2023/08/03 04:43:19;;;;;;;8.15;4.88;;;;;;;;;;9891609;29;20047;-86
2023/08/03 04:48:20;;;;;;;7.15;4.47;;;;;;;;;;9895257;29;20092;-86
2023/08/03 04:53:21;;;;;;;4.88;3.42;;;;;;;;;;9887600;30;20108;-85
2023/08/03 04:58:22;;;;;;;4.78;2.80;;;;;;;;;;9881649;29;20099;-86
2023/08/03 05:03:23;;;;;;;4.60;3.05;;;;;;;;;;9973182;24;20054;-86
2023/08/03 05:08:25;;;;;;;4.93;3.30;;;;;;;;;;9971938;29;20038;-85
2023/08/03 05:13:26;;;;;;;6.55;3.85;;;;;;;;;;9971506;29;20030;-86
2023/08/03 05:18:27;;;;;;;6.38;3.88;;;;;;;;;;9972976;29;20030;-84
2023/08/03 05:23:28;;;;;;;8.32;5.47;;;;;;;;;;9962084;29;20047;-88
2023/08/03 05:28:29;;;;;;;10.50;5.65;;;;;;;;;;9962607;29;20031;-84
2023/08/03 05:33:33;;;;;;;8.77;5.75;;;;;;;;;;9966875;29;20073;-82
2023/08/03 05:38:34;;;;;;;8.52;5.68;;;;;;;;;;9961798;29;20038;-81
2023/08/03 05:43:35;;;;;;;13.45;7.68;;;;;;;;;;9957671;29;20034;-82
2023/08/03 05:48:37;;;;;;;8.40;5.32;;;;;;;;;;9957931;29;20038;-87
2023/08/03 05:53:41;;;;;;;9.52;5.28;;;;;;;;;;9956896;29;20050;-85
2023/08/03 05:58:42;;;;;;;7.78;5.40;;;;;;;;;;9951698;29;20077;-84
2023/08/03 06:03:44;;;;;;;9.00;5.45;;;;;;;;;;9995506;29;20058;-84
2023/08/03 06:08:50;;;;;;;8.77;5.78;;;;;;;;;;9995422;29;20738;-84
2023/08/03 06:13:52;;;;;;;8.13;5.55;;;;;;;;;;10003989;29;20431;-83
2023/08/03 06:18:54;;;;;;;11.07;5.38;;;;;;;;;;9981629;29;20051;-84
2023/08/03 06:23:57;;;;;;;12.70;5.88;;;;;;;;;;10004548;29;20102;-85
2023/08/03 06:29:00;;;;;;;8.98;5.78;;;;;;;;;;9974237;29;20495;-85
2023/08/03 06:34:02;;;;;;;8.70;6.30;;;;;;;;;;9992118;29;20036;-84
2023/08/03 06:39:03;;;;;;;11.63;5.72;;;;;;;;;;9987591;29;20068;-85
2023/08/03 06:44:05;;;;;;;8.68;5.95;;;;;;;;;;9980154;29;20063;-84
2023/08/03 06:49:06;;;;;;;11.82;6.50;;;;;;;;;;9998147;29;20030;-85
2023/08/03 06:54:07;;;;;;;10.10;6.38;;;;;;;;;;9996106;29;20038;-85
2023/08/03 06:59:08;;;;;;;10.10;5.82;;;;;;;;;;10001799;29;20113;-84
2023/08/03 07:04:09;;;;;;;11.32;6.55;;;;;;;;;;9974699;29;20058;-86
2023/08/03 07:09:10;;;;;;;9.10;5.82;;;;;;;;;;9977554;29;20475;-85
2023/08/03 07:14:11;;;;;;;9.25;5.20;;;;;;;;;;9982469;29;20043;-85
2023/08/03 07:19:13;;;;;;;8.27;5.00;;;;;;;;;;9980913;29;20042;-84
2023/08/03 07:24:14;;;;;;;10.30;5.45;;;;;;;;;;10002371;29;20691;-85
2023/08/03 07:29:15;;;;;;;7.13;4.38;;;;;;;;;;10022902;29;20037;-86
2023/08/03 07:34:16;;;;;;;6.25;4.45;;;;;;;;;;10019704;29;20366;-84
2023/08/03 07:39:17;;;;;;;8.90;4.03;;;;;;;;;;10030065;29;20040;-85
2023/08/03 07:44:18;;;;;;;4.45;3.40;;;;;;;;;;10002606;29;20034;-85
2023/08/03 07:49:20;;;;;;;5.40;3.90;;;;;;;;;;10007414;29;20392;-85
2023/08/03 07:54:21;;;;;;;5.95;2.60;;;;;;;;;;10001635;29;20033;-85
2023/08/03 07:59:22;;;;;;;5.97;3.20;;;;;;;;;;10022888;29;20042;-84
2023/08/03 08:04:23;;;;;;;5.32;3.08;;;;;;;;;;10014518;29;20088;-86
2023/08/03 08:09:25;;;;;;;6.75;3.35;;;;;;;;;;10014885;29;20040;-86
2023/08/03 08:14:26;;;;;;;4.38;3.22;;;;;;;;;;10024275;29;20182;-85
2023/08/03 08:19:27;;;;;;;4.65;2.83;;;;;;;;;;10017204;29;20142;-86
2023/08/03 08:24:28;;;;;;;5.90;3.30;;;;;;;;;;10009152;29;20045;-87
2023/08/03 08:29:29;;;;;;;4.25;3.17;;;;;;;;;;10006921;29;20053;-86
2023/08/03 08:34:30;;;;;;;7.03;3.42;;;;;;;;;;10026529;29;20077;-86
2023/08/03 08:39:31;;;;;;;9.68;4.30;;;;;;;;;;9989596;29;20479;-86
2023/08/03 08:44:33;;;;;;;7.85;4.25;;;;;;;;;;10026175;29;20109;-87
2023/08/03 08:49:34;;;;;;;6.45;3.90;;;;;;;;;;10019499;29;20034;-86
2023/08/03 08:54:35;;;;;;;7.53;4.03;;;;;;;;;;9990004;29;20129;-88
2023/08/03 08:59:36;;;;;;;8.07;4.13;;;;;;;;;;10003288;29;20061;-85
2023/08/03 09:04:37;;;;;;;6.13;4.30;;;;;;;;;;9999255;29;20154;-87
2023/08/03 09:09:40;;;;;;;5.88;4.32;;;;;;;;;;10012479;29;20076;-85
2023/08/03 09:14:50;;;;;;;7.57;4.25;;;;;;;;;;10006675;29;20129;-88
2023/08/03 09:19:51;;;;;;;5.60;4.28;;;;;;;;;;9977471;29;20486;-88
2023/08/03 09:25:06;;;;;;;6.78;4.38;;;;;;;;;;10018515;29;20532;-87
2023/08/03 09:30:07;;;;;;;12.90;5.03;;;;;;;;;;10005692;29;20044;-87
2023/08/03 09:35:28;;;;;;;9.00;4.47;;;;;;;;;;10016129;29;20038;-88
2023/08/03 09:40:44;;;;;;;7.85;4.63;;;;;;;;;;9989645;29;20042;-86
2023/08/03 09:45:48;;;;;;;9.38;4.72;;;;;;;;;;9998924;29;20069;-85
2023/08/03 09:50:53;;;;;;;7.18;4.50;;;;;;;;;;10001305;29;20030;-84
2023/08/03 09:56:00;;;;;;;5.72;3.92;;;;;;;;;;10004012;29;20041;-85
2023/08/03 10:01:03;;;;;;;10.05;5.20;;;;;;;;;;10008768;29;20057;-85
2023/08/03 10:06:15;;;;;;;8.02;4.70;;;;;;;;;;9995682;29;20052;-85
2023/08/03 10:11:17;;;;;;;4.85;4.18;;;;;;;;;;9989988;29;20034;-86
2023/08/03 10:16:18;;;;;;;4.57;3.92;;;;;;;;;;9986933;29;20050;-87
2023/08/03 10:21:19;;;;;;;7.78;4.43;;;;;;;;;;9998713;29;20045;-86
2023/08/03 10:26:24;;;;;;;8.20;4.35;;;;;;;;;;10005569;29;20062;-87
2023/08/03 10:31:25;;;;;;;10.48;5.05;;;;;;;;;;9985893;29;20066;-86
2023/08/03 10:36:29;;;;;;;10.43;4.95;;;;;;;;;;10015630;29;20068;-86
2023/08/03 10:41:36;;;;;;;8.50;5.25;;;;;;;;;;9999519;29;20106;-85
2023/08/03 10:46:41;;;;;;;7.40;4.90;;;;;;;;;;10011416;29;20026;-85
2023/08/03 10:51:42;;;;;;;9.35;5.43;;;;;;;;;;10019336;29;20031;-85
2023/08/03 10:57:15;;;;;;;6.50;4.28;;;;;;;;;;10021150;29;20042;-86
2023/08/03 11:02:25;;;;;;;6.10;3.90;;;;;;;;;;9953281;29;20057;-86
2023/08/03 11:07:32;;;;;;;8.15;3.72;;;;;;;;;;9995774;24;20074;-86
2023/08/03 11:12:33;;;;;;;6.38;3.60;;;;;;;;;;10020251;29;20033;-87
2023/08/03 11:17:46;;;;;;;8.13;3.08;;;;;;;;;;9992527;29;20042;-85
2023/08/03 11:22:47;;;;;;;5.97;2.60;;;;;;;;;;9989172;29;20054;-86
2023/08/03 11:27:49;;;;;;;3.97;2.45;;;;;;;;;;9967131;29;20517;-85
2023/08/03 11:33:12;;;;;;;4.60;3.08;;;;;;;;;;9956146;29;20050;-85
2023/08/03 11:38:14;;;;;;;5.93;3.30;;;;;;;;;;9955777;29;20057;-86
2023/08/03 11:43:18;;;;;;;7.70;3.33;;;;;;;;;;9958354;29;20522;-85
2023/08/03 11:48:24;;;;;;;8.77;4.03;;;;;;;;;;9974289;29;20026;-84
2023/08/03 11:53:26;;;;;;;3.95;2.88;;;;;;;;;;9957078;29;20034;-85
2023/08/03 11:58:27;;;;;;;4.55;2.63;;;;;;;;;;9972283;29;20038;-86
2023/08/03 12:09:18;;;;;;;5.55;2.75;;;;;;;;;;9941911;29;20183;-86
2023/08/03 12:14:19;;;;;;;5.22;2.83;;;;;;;;;;9970870;29;20514;-86
2023/08/03 12:19:20;;;;;;;5.05;3.13;;;;;;;;;;9967968;29;20037;-86
2023/08/03 12:24:52;;;;;;;5.65;3.05;;;;;;;;;;9972195;29;20036;-86
2023/08/03 12:29:53;;;;;;;6.57;3.10;;;;;;;;;;9963456;29;20050;-85
2023/08/03 12:40:43;;;;;;;6.35;3.38;;;;;;;;;;9896561;29;20051;-85
2023/08/03 12:51:22;;;;;;;5.78;3.10;;;;;;;;;;9939932;29;20462;-87
2023/08/03 12:56:23;;;;;;;3.30;2.53;;;;;;;;;;9955071;29;20050;-86
2023/08/03 13:01:24;;;;;;;4.75;2.78;;;;;;;;;;9955571;29;20030;-87
2023/08/03 13:06:44;;;;;;;7.88;3.22;;;;;;;;;;9949743;29;20046;-88
2023/08/03 13:12:18;;;;;;;5.43;2.47;;;;;;;;;;9894712;29;20125;-85
2023/08/03 13:17:20;;;;;;;4.13;2.63;;;;;;;;;;9894064;29;20039;-85
2023/08/03 13:22:21;;;;;;;3.63;2.22;;;;;;;;;;9896751;29;20035;-84
2023/08/03 13:27:25;;;;;;;3.53;2.05;;;;;;;;;;9888259;30;20032;-87
2023/08/03 13:32:26;;;;;;;2.95;2.03;;;;;;;;;;9895502;29;20047;-85
2023/08/03 13:37:27;;;;;;;5.88;2.25;;;;;;;;;;9896934;29;20043;-85
2023/08/03 13:42:28;;;;;;;6.45;2.47;;;;;;;;;;9906539;29;20058;-85
2023/08/03 13:47:29;;;;;;;5.45;2.30;;;;;;;;;;9903394;29;20093;-85
2023/08/03 13:52:30;;;;;;;5.95;2.55;;;;;;;;;;9894093;29;20442;-85
2023/08/03 13:57:31;;;;;;;4.75;2.40;;;;;;;;;;9906141;29;20050;-84
2023/08/03 14:02:33;;;;;;;3.60;2.22;;;;;;;;;;9902808;29;20050;-84
2023/08/03 14:07:34;;;;;;;4.10;2.25;;;;;;;;;;9919710;29;20410;-85
2023/08/03 14:12:36;;;;;;;8.27;2.15;;;;;;;;;;9980941;29;20030;-84
2023/08/03 14:17:37;;;;;;;5.03;2.50;;;;;;;;;;9957912;29;20049;-85
2023/08/03 14:22:38;;;;;;;3.05;2.33;;;;;;;;;;9977169;29;20058;-86
2023/08/03 14:27:39;;;;;;;4.53;2.65;;;;;;;;;;9980674;29;20034;-83
2023/08/03 14:32:40;;;;;;;6.10;2.85;;;;;;;;;;9972204;29;20033;-85
2023/08/03 14:37:41;;;;;;;5.05;2.63;;;;;;;;;;9980121;29;20061;-85
2023/08/03 14:42:45;;;;;;;4.68;2.38;;;;;;;;;;9959233;29;20042;-88
2023/08/03 14:53:06;;;;;;;4.40;2.80;;;;;;;;;;9976578;29;20042;-83
2023/08/03 14:58:07;;;;;;;7.05;2.95;;;;;;;;;;9974626;29;20046;-87
2023/08/03 15:03:08;;;;;;;3.90;2.53;;;;;;;;;;9973951;29;20030;-85
2023/08/03 15:08:09;;;;;;;4.30;2.00;;;;;;;;;;9975276;29;20586;-85
2023/08/03 15:13:11;;;;;;;5.10;2.45;;;;;;;;;;9975017;29;20106;-85
2023/08/03 15:18:12;;;;;;;4.75;2.55;;;;;;;;;;9955910;29;20484;-85
2023/08/03 15:23:13;;;;;;;5.63;2.22;;;;;;;;;;9967739;29;20050;-85
2023/08/03 15:28:14;;;;;;;3.63;2.00;;;;;;;;;;9957365;29;20109;-86
2023/08/03 15:33:16;;;;;;;3.67;2.05;;;;;;;;;;9956894;29;20623;-85
2023/08/03 15:38:17;;;;;;;5.97;1.95;;;;;;;;;;9954673;29;20141;-85
2023/08/03 15:43:21;;;;;;;3.42;1.63;;;;;;;;;;9957365;29;20548;-85
2023/08/03 15:48:22;;;;;;;2.67;1.83;;;;;;;;;;9973923;29;20030;-84
2023/08/03 15:53:23;;;;;;;6.13;2.33;;;;;;;;;;9974632;29;20053;-84
2023/08/03 15:58:45;;;;;;;5.53;2.22;;;;;;;;;;9973590;29;20506;-85
2023/08/03 16:03:46;;;;;;;4.05;1.77;;;;;;;;;;9956315;29;20038;-85
2023/08/03 16:08:47;;;;;;;3.83;1.88;;;;;;;;;;9973898;29;20050;-83
2023/08/03 16:13:55;;;;;;;4.55;1.70;;;;;;;;;;9950162;29;20042;-85
2023/08/03 16:19:14;;;;;;;4.82;2.67;;;;;;;;;;9955199;29;20527;-85
2023/08/03 16:24:15;;;;;;;2.92;1.58;;;;;;;;;;9967222;29;20030;-84
2023/08/03 16:29:16;;;;;;;4.65;1.35;;;;;;;;;;9957348;29;20041;-85
2023/08/03 16:34:17;;;;;;;3.53;1.50;;;;;;;;;;9973445;29;20031;-85
2023/08/03 16:39:18;;;;;;;1.88;1.30;;;;;;;;;;9973914;29;20515;-83
2023/08/03 16:44:19;;;;;;;2.80;1.40;;;;;;;;;;9972235;29;20034;-84
2023/08/03 16:49:22;;;;;;;2.50;1.40;;;;;;;;;;9972077;29;20042;-84
2023/08/03 16:54:23;;;;;;;7.13;1.90;;;;;;;;;;9972340;29;20046;-84
2023/08/03 16:59:24;;;;;;;3.22;1.20;;;;;;;;;;9971993;29;20496;-84
2023/08/03 17:04:25;;;;;;;4.95;1.60;;;;;;;;;;9957426;29;20042;-84
2023/08/03 17:09:26;;;;;;;1.90;1.40;;;;;;;;;;9933910;29;20046;-84
2023/08/03 17:14:28;;;;;;;4.45;1.55;;;;;;;;;;9963872;29;20034;-84
2023/08/03 17:19:29;;;;;;;2.50;1.15;;;;;;;;;;9954378;29;20181;-84
2023/08/03 17:24:30;;;;;;;4.05;1.20;;;;;;;;;;9953313;29;20038;-86
2023/08/03 17:29:31;;;;;;;3.75;1.60;;;;;;;;;;9971701;29;20042;-84
2023/08/03 17:34:35;;;;;;;1.90;1.10;;;;;;;;;;9971060;29;20038;-85
2023/08/03 17:39:36;;;;;;;3.28;1.33;;;;;;;;;;9968649;29;20034;-83
2023/08/03 17:44:38;;;;;;;3.95;1.60;;;;;;;;;;9970366;29;20045;-85
2023/08/03 17:49:39;;;;;;;3.67;1.92;;;;;;;;;;9971812;29;20033;-85
2023/08/03 17:54:41;;;;;;;5.60;1.70;;;;;;;;;;9953336;29;20046;-85
2023/08/03 18:00:00;;;;;;;2.55;1.30;;;;;;;;;;9952172;29;20046;-84
2023/08/03 18:05:09;;;;;;;3.90;2.10;;;;;;;;;;9968034;29;20042;-86
2023/08/03 18:10:10;;;;;;;3.78;1.63;;;;;;;;;;9948777;29;20491;-86
2023/08/03 18:15:13;;;;;;;4.80;1.90;;;;;;;;;;9948656;29;20058;-84
2023/08/03 18:26:19;;;;;;;4.18;1.65;;;;;;;;;;9956910;29;20562;-85
2023/08/03 18:31:35;;;;;;;3.95;1.67;;;;;;;;;;9968355;29;20039;-84
2023/08/03 18:36:37;;;;;;;1.70;1.20;;;;;;;;;;9951750;29;20050;-85
2023/08/03 18:41:38;;;;;;;5.40;1.98;;;;;;;;;;9969717;29;20042;-85
2023/08/03 18:46:39;;;;;;;3.22;1.65;;;;;;;;;;9968717;29;20502;-83
2023/08/03 18:51:40;;;;;;;2.90;1.55;;;;;;;;;;9969065;29;20030;-84
2023/08/03 18:56:49;;;;;;;4.78;1.50;;;;;;;;;;9968028;29;20488;-84
2023/08/03 19:01:50;;;;;;;3.30;1.30;;;;;;;;;;9963507;29;20091;-82
2023/08/03 19:06:51;;;;;;;5.13;1.67;;;;;;;;;;9966617;29;20643;-83
2023/08/03 19:11:58;;;;;;;4.53;1.70;;;;;;;;;;9975684;29;20026;-84
2023/08/03 19:17:07;;;;;;;4.80;1.88;;;;;;;;;;9955974;29;20050;-84
2023/08/03 19:22:09;;;;;;;5.10;2.35;;;;;;;;;;9957926;29;20129;-86
2023/08/03 19:27:10;;;;;;;3.88;1.98;;;;;;;;;;9958525;29;20126;-84
2023/08/03 19:32:11;;;;;;;2.85;1.90;;;;;;;;;;9975618;29;20422;-83
2023/08/03 19:37:12;;;;;;;2.78;1.45;;;;;;;;;;9975013;29;20096;-83
2023/08/03 19:42:16;;;;;;;3.75;1.42;;;;;;;;;;9974997;29;20079;-83
2023/08/03 19:47:19;;;;;;;5.13;2.37;;;;;;;;;;9964971;29;20800;-83
2023/08/03 19:52:20;;;;;;;3.67;1.90;;;;;;;;;;9961714;29;20038;-84
2023/08/03 19:57:21;;;;;;;3.65;2.17;;;;;;;;;;9983347;29;20068;-85
2023/08/03 20:02:22;;;;;;;3.65;1.60;;;;;;;;;;9988084;29;20522;-83
2023/08/03 20:07:23;;;;;;;6.07;2.30;;;;;;;;;;9981517;29;20526;-85
2023/08/03 20:12:24;;;;;;;3.38;2.30;;;;;;;;;;9983900;29;20026;-82
2023/08/03 20:17:25;;;;;;;5.50;2.50;;;;;;;;;;9980997;29;20042;-84
2023/08/03 20:22:26;;;;;;;4.95;2.80;;;;;;;;;;9977597;29;20038;-83
2023/08/03 20:27:27;;;;;;;8.82;2.88;;;;;;;;;;9971797;29;20050;-86
2023/08/03 20:32:28;;;;;;;4.32;2.45;;;;;;;;;;9979619;29;20395;-83
2023/08/03 20:37:29;;;;;;;4.05;2.40;;;;;;;;;;9966033;29;20050;-83
2023/08/03 20:42:31;;;;;;;5.60;2.35;;;;;;;;;;9987757;29;20643;-84
2023/08/03 20:47:32;;;;;;;5.38;2.47;;;;;;;;;;9978876;24;20422;-83
2023/08/03 20:52:33;;;;;;;7.85;2.85;;;;;;;;;;9929404;29;20058;-84
2023/08/03 20:57:34;;;;;;;4.38;2.67;;;;;;;;;;9939015;29;20557;-85
2023/08/03 21:02:35;;;;;;;7.10;2.78;;;;;;;;;;9921719;29;20446;-83
2023/08/03 21:07:36;;;;;;;7.22;2.65;;;;;;;;;;9934709;29;20046;-84
2023/08/03 21:12:37;;;;;;;11.27;2.92;;;;;;;;;;9934751;29;20483;-83
2023/08/03 21:17:38;;;;;;;7.53;3.00;;;;;;;;;;9934846;29;20042;-85
2023/08/03 21:22:40;;;;;;;4.15;2.33;;;;;;;;;;9934108;29;20118;-85
2023/08/03 21:27:45;;;;;;;5.03;2.83;;;;;;;;;;9934426;29;20038;-85
2023/08/03 21:32:46;;;;;;;6.78;2.60;;;;;;;;;;9934404;29;20042;-84
2023/08/03 21:37:47;;;;;;;5.35;2.25;;;;;;;;;;9932720;29;20492;-85
2023/08/03 21:42:48;;;;;;;4.47;2.10;;;;;;;;;;9933344;29;21558;-84
2023/08/03 21:47:49;;;;;;;3.67;2.20;;;;;;;;;;9933230;29;20088;-86
2023/08/03 21:52:50;;;;;;;5.40;2.30;;;;;;;;;;9933294;29;20100;-84
2023/08/03 21:57:51;;;;;;;8.43;2.97;;;;;;;;;;9916688;29;20537;-84
2023/08/03 22:02:52;;;;;;;6.13;3.22;;;;;;;;;;9932898;29;20053;-84
2023/08/03 22:07:53;;;;;;;8.30;3.08;;;;;;;;;;9932833;29;20087;-85
2023/08/03 22:12:54;;;;;;;5.40;2.53;;;;;;;;;;9927368;29;20078;-84
2023/08/03 22:17:55;;;;;;;8.20;2.95;;;;;;;;;;9932133;29;20099;-86
2023/08/03 22:22:56;;;;;;;6.95;2.80;;;;;;;;;;9933222;29;20509;-85
2023/08/03 22:27:57;;;;;;;6.88;2.67;;;;;;;;;;9932351;29;20041;-84
2023/08/03 22:32:58;;;;;;;7.60;2.30;;;;;;;;;;9933040;29;20492;-85
2023/08/03 22:37:59;;;;;;;4.38;2.45;;;;;;;;;;9932068;29;20059;-85
2023/08/03 22:43:02;;;;;;;5.57;2.33;;;;;;;;;;9936963;29;20151;-85
2023/08/03 22:48:03;;;;;;;5.03;2.00;;;;;;;;;;9950962;24;20622;-84
2023/08/03 22:53:04;;;;;;;5.35;2.20;;;;;;;;;;9938360;29;20059;-84
2023/08/03 22:58:05;;;;;;;5.78;2.60;;;;;;;;;;9939756;29;20471;-84
2023/08/03 23:03:06;;;;;;;4.55;2.38;;;;;;;;;;9938342;29;20039;-83
2023/08/03 23:08:07;;;;;;;5.30;2.90;;;;;;;;;;9939056;29;20023;-84
2023/08/03 23:13:08;;;;;;;9.48;3.72;;;;;;;;;;9936836;29;20395;-86
2023/08/03 23:18:09;;;;;;;6.88;2.75;;;;;;;;;;9938863;29;20050;-86
2023/08/03 23:23:10;;;;;;;3.88;2.15;;;;;;;;;;9938667;29;20030;-84
2023/08/03 23:28:12;;;;;;;5.22;2.47;;;;;;;;;;9921816;29;20396;-83
2023/08/03 23:33:13;;;;;;;5.82;2.40;;;;;;;;;;9938229;29;20131;-87
2023/08/03 23:38:14;;;;;;;2.80;1.88;;;;;;;;;;9935817;29;20389;-85
2023/08/03 23:43:15;;;;;;;4.25;2.25;;;;;;;;;;9937023;29;20045;-85
2023/08/03 23:48:16;;;;;;;4.35;1.80;;;;;;;;;;9938034;29;20065;-86
2023/08/03 23:53:17;;;;;;;4.00;1.60;;;;;;;;;;9937038;29;20054;-85
2023/08/03 23:58:18;;;;;;;4.35;2.20;;;;;;;;;;9937640;29;20043;-85
